Cherry Grove Beach, South Carolina
Current Conditions -  °F | °C
As of 1:53 PM on Monday 22 Dec 2014 (Local Time) from KCRE Reporting Station
Overcast Overcast  
Wind Chill: 42°   Ceiling: 400
Heat Index: 47°   Visibility: 10mi
Dew Point: 44°   Wind: 10mph
Humidity: 90%   Direction: 10°N
Pressure: 29.99"   Gusts: NA
Location:  33.8371°N, 78.6471°W
Report Text: KCRE 221853Z 01009KT 10SM OVC004 08/07 A2999 RMK AO1 RAB04E17 SLP155 P0000 T00830067
Loading
Personal Weather Stations






























Interactive Weather Map New forecast layout! Learn more

10-Day Weather Forecast

Advertisements
Track Severe Weather on mobile